createdAt,value
2023-02-14T00:00:27.820Z,0.00
2023-02-14T00:01:27.809Z,0.00
2023-02-14T00:02:27.854Z,0.00
2023-02-14T00:03:27.765Z,0.00
2023-02-14T00:04:27.820Z,0.00
2023-02-14T00:05:27.749Z,0.00
2023-02-14T00:06:27.732Z,0.00
2023-02-14T00:07:27.729Z,0.00
2023-02-14T00:08:27.710Z,0.00
2023-02-14T00:09:27.698Z,0.00
2023-02-14T00:10:27.718Z,0.00
2023-02-14T00:11:27.664Z,0.00
2023-02-14T00:12:27.664Z,0.00
2023-02-14T00:13:27.654Z,0.00
2023-02-14T00:14:27.636Z,0.00
2023-02-14T00:15:27.638Z,0.00
2023-02-14T00:16:27.734Z,0.00
2023-02-14T00:17:27.605Z,0.00
2023-02-14T00:18:27.574Z,0.00
2023-02-14T00:19:27.627Z,0.00
2023-02-14T00:20:27.576Z,0.00
2023-02-14T00:21:27.546Z,0.00
2023-02-14T00:22:27.570Z,0.00
2023-02-14T00:23:27.528Z,0.00
2023-02-14T00:24:27.538Z,0.00
2023-02-14T00:25:27.510Z,0.00
2023-02-14T00:26:27.481Z,0.00
2023-02-14T00:27:27.472Z,0.00
2023-02-14T00:28:27.486Z,0.00
2023-02-14T00:29:27.497Z,0.00
2023-02-14T00:30:27.547Z,0.00
2023-02-14T00:31:27.580Z,0.00
2023-02-14T00:32:27.442Z,0.00
2023-02-14T00:33:27.404Z,0.00
2023-02-14T00:34:27.468Z,0.00
2023-02-14T00:35:27.365Z,0.00
2023-02-14T00:36:27.360Z,0.00
2023-02-14T00:37:27.351Z,0.00
2023-02-14T00:38:27.326Z,0.00
2023-02-14T00:39:27.333Z,0.00
2023-02-14T00:40:27.342Z,0.00
2023-02-14T00:41:27.311Z,0.00
2023-02-14T00:42:27.304Z,0.00
2023-02-14T00:43:27.275Z,0.00
2023-02-14T00:44:27.261Z,0.00
2023-02-14T00:45:27.268Z,0.00
2023-02-14T00:46:27.261Z,0.00
2023-02-14T00:47:27.249Z,0.00
2023-02-14T00:48:27.201Z,0.00
2023-02-14T00:49:27.195Z,0.00
2023-02-14T00:50:27.188Z,0.00
2023-02-14T00:51:27.180Z,0.00
2023-02-14T00:52:27.195Z,0.00
2023-02-14T00:53:27.138Z,0.00
2023-02-14T00:54:27.126Z,0.00
2023-02-14T00:55:27.113Z,0.00
2023-02-14T00:56:27.116Z,0.00
2023-02-14T00:57:27.104Z,0.00
2023-02-14T00:58:27.101Z,0.00
2023-02-14T00:59:27.057Z,0.00
2023-02-14T01:00:27.066Z,0.00
2023-02-14T01:01:27.123Z,0.00
2023-02-14T01:02:27.124Z,0.00
2023-02-14T01:03:27.011Z,0.00
2023-02-14T01:04:27.030Z,0.00
2023-02-14T01:05:26.994Z,0.00
2023-02-14T01:06:26.998Z,0.00
2023-02-14T01:07:26.975Z,0.00
2023-02-14T01:08:26.964Z,0.00
2023-02-14T01:09:26.938Z,0.00
2023-02-14T01:10:26.965Z,0.00
2023-02-14T01:11:28.708Z,0.00
2023-02-14T01:12:26.917Z,0.00
2023-02-14T01:13:26.938Z,0.00
2023-02-14T01:14:26.885Z,0.00
2023-02-14T01:15:26.887Z,0.00
2023-02-14T01:16:26.990Z,0.00
2023-02-14T01:17:26.842Z,0.00
2023-02-14T01:18:26.832Z,0.00
2023-02-14T01:19:26.825Z,0.00
2023-02-14T01:20:26.810Z,0.00
2023-02-14T01:21:26.795Z,0.00
2023-02-14T01:22:26.804Z,0.00
2023-02-14T01:23:26.771Z,0.00
2023-02-14T01:24:26.783Z,0.00
2023-02-14T01:25:26.741Z,0.00
2023-02-14T01:26:26.725Z,0.00
2023-02-14T01:27:26.715Z,0.00
2023-02-14T01:28:26.724Z,0.00
2023-02-14T01:29:26.693Z,0.00
2023-02-14T01:30:26.759Z,0.00
2023-02-14T01:31:26.953Z,0.00
2023-02-14T01:32:26.645Z,0.00
2023-02-14T01:33:26.645Z,0.00
2023-02-14T01:34:26.648Z,0.00
2023-02-14T01:35:26.635Z,0.00
2023-02-14T01:36:26.596Z,0.00
2023-02-14T01:37:26.583Z,0.00
2023-02-14T01:38:26.574Z,0.00
2023-02-14T01:39:26.570Z,0.00
2023-02-14T01:40:26.590Z,0.00
2023-02-14T01:41:26.592Z,0.00
2023-02-14T01:42:26.550Z,0.00
2023-02-14T01:43:26.516Z,0.00
2023-02-14T01:44:26.507Z,0.00
2023-02-14T01:45:26.490Z,0.00
2023-02-14T01:46:26.513Z,0.00
2023-02-14T01:47:26.468Z,0.00
2023-02-14T01:48:26.464Z,0.00
2023-02-14T01:49:26.442Z,0.00
2023-02-14T01:50:26.421Z,0.00
2023-02-14T01:51:26.426Z,0.00
2023-02-14T01:52:26.441Z,0.00
2023-02-14T01:53:26.410Z,0.00
2023-02-14T01:54:26.379Z,0.00
2023-02-14T01:55:26.363Z,0.00
2023-02-14T01:56:26.344Z,0.00
2023-02-14T01:57:26.351Z,0.00
2023-02-14T01:58:26.358Z,0.00
2023-02-14T01:59:26.316Z,0.00
2023-02-14T02:00:26.303Z,0.00
2023-02-14T02:01:26.455Z,0.00
2023-02-14T02:18:17.884Z,0.00
2023-02-14T02:19:18.863Z,0.00
2023-02-14T02:20:18.819Z,0.00
2023-02-14T02:21:18.809Z,0.00
2023-02-14T02:22:18.832Z,0.00
2023-02-14T02:23:18.815Z,0.00
2023-02-14T02:24:18.759Z,0.00
2023-02-14T02:25:18.748Z,0.00
2023-02-14T02:26:18.734Z,0.00
2023-02-14T02:27:18.761Z,0.00
2023-02-14T02:28:18.723Z,0.00
2023-02-14T02:29:18.731Z,0.00
2023-02-14T02:30:18.748Z,0.00
2023-02-14T02:31:18.783Z,0.00
2023-02-14T02:32:18.673Z,0.00
2023-02-14T02:33:18.646Z,0.00
2023-02-14T02:34:18.654Z,0.00
2023-02-14T02:35:18.657Z,0.00
2023-02-14T02:36:18.610Z,0.00
2023-02-14T02:37:18.597Z,0.00
2023-02-14T02:38:18.622Z,0.00
2023-02-14T02:39:18.626Z,0.00
2023-02-14T02:40:18.581Z,0.00
2023-02-14T02:41:18.582Z,0.00
2023-02-14T02:42:18.548Z,0.00
2023-02-14T02:43:18.528Z,0.00
2023-02-14T02:44:18.537Z,0.00
2023-02-14T02:45:18.505Z,0.00
2023-02-14T02:46:18.532Z,0.00
2023-02-14T02:47:18.506Z,0.00
2023-02-14T02:48:18.486Z,0.00
2023-02-14T02:49:18.456Z,0.00
2023-02-14T02:50:18.514Z,0.00
2023-02-14T02:51:18.424Z,0.00
2023-02-14T02:52:18.413Z,0.00
2023-02-14T02:53:18.427Z,0.00
2023-02-14T02:54:18.399Z,0.00
2023-02-14T02:55:18.375Z,0.00
2023-02-14T02:56:18.361Z,0.00
2023-02-14T02:57:18.381Z,0.00
2023-02-14T02:58:18.342Z,0.00
2023-02-14T02:59:18.587Z,0.00
2023-02-14T03:00:18.365Z,0.00
2023-02-14T03:01:18.346Z,0.00
2023-02-14T03:02:18.346Z,0.00
2023-02-14T03:03:18.312Z,0.00
2023-02-14T03:04:18.346Z,0.00
2023-02-14T03:05:18.329Z,0.00
2023-02-14T03:06:18.251Z,0.00
2023-02-14T03:07:18.220Z,0.00
2023-02-14T03:08:18.227Z,0.00
2023-02-14T03:09:18.218Z,0.00
2023-02-14T03:10:18.195Z,0.00
2023-02-14T03:11:18.198Z,0.00
2023-02-14T03:12:18.167Z,0.00
2023-02-14T03:13:18.167Z,0.00
2023-02-14T03:14:18.142Z,0.00
2023-02-14T03:15:18.134Z,0.00
2023-02-14T03:16:18.113Z,0.00
2023-02-14T03:17:18.178Z,0.00
2023-02-14T03:18:18.094Z,0.00
2023-02-14T03:19:18.097Z,0.00
2023-02-14T03:20:18.078Z,0.00
2023-02-14T03:21:18.055Z,0.00
2023-02-14T03:22:18.047Z,0.00
2023-02-14T03:23:18.066Z,0.00
2023-02-14T03:24:18.024Z,0.00
2023-02-14T03:25:18.015Z,0.00
2023-02-14T03:26:18.028Z,0.00
2023-02-14T03:27:17.976Z,0.00
2023-02-14T03:28:18.002Z,0.00
2023-02-14T03:29:17.971Z,0.00
2023-02-14T03:30:18.096Z,0.00
2023-02-14T03:31:18.018Z,0.00
2023-02-14T03:32:18.164Z,0.00
2023-02-14T03:33:17.932Z,0.00
2023-02-14T03:34:17.882Z,0.00
2023-02-14T03:35:17.906Z,0.00
2023-02-14T03:36:17.868Z,0.00
2023-02-14T03:37:17.860Z,0.00
2023-02-14T03:38:17.846Z,0.00
2023-02-14T03:39:17.829Z,0.00
2023-02-14T03:40:17.816Z,0.00
2023-02-14T03:41:17.835Z,0.00
2023-02-14T03:42:17.780Z,0.00
2023-02-14T03:43:17.789Z,0.00
2023-02-14T03:44:17.769Z,0.00
2023-02-14T03:45:17.818Z,0.00
2023-02-14T03:46:17.853Z,0.00
2023-02-14T03:47:17.758Z,0.00
2023-02-14T03:48:17.727Z,0.00
2023-02-14T03:49:17.715Z,0.00
2023-02-14T03:50:17.708Z,0.00
2023-02-14T03:51:17.681Z,0.00
2023-02-14T03:52:17.705Z,0.00
2023-02-14T03:53:17.690Z,0.00
2023-02-14T03:54:17.637Z,0.00
2023-02-14T03:55:17.634Z,0.00
2023-02-14T03:56:17.639Z,0.00
2023-02-14T03:57:17.615Z,0.00
2023-02-14T03:58:17.607Z,0.00
2023-02-14T03:59:17.626Z,0.00
2023-02-14T04:00:17.563Z,0.00
2023-02-14T04:01:17.556Z,0.00
2023-02-14T04:02:17.542Z,0.00
2023-02-14T04:03:17.616Z,0.00
2023-02-14T04:04:17.521Z,0.00
2023-02-14T04:05:17.535Z,0.00
2023-02-14T04:06:17.516Z,0.00
2023-02-14T04:07:17.471Z,0.00
2023-02-14T04:08:17.460Z,0.00
2023-02-14T04:09:17.462Z,0.00
2023-02-14T04:10:17.435Z,0.00
2023-02-14T04:11:17.476Z,0.00
2023-02-14T04:12:19.841Z,0.00
2023-02-14T04:13:17.428Z,0.00
2023-02-14T04:14:17.389Z,0.00
2023-02-14T04:15:17.374Z,0.00
2023-02-14T04:16:17.444Z,0.00
2023-02-14T04:17:17.385Z,0.00
2023-02-14T04:18:17.338Z,0.00
2023-02-14T04:19:17.323Z,0.00
2023-02-14T04:20:17.319Z,0.00
2023-02-14T04:21:17.306Z,0.00
2023-02-14T04:22:17.287Z,0.00
2023-02-14T04:23:17.304Z,0.00
2023-02-14T04:24:17.283Z,0.00
2023-02-14T04:25:17.251Z,0.00
2023-02-14T04:26:17.252Z,0.00
2023-02-14T04:27:17.226Z,0.00
2023-02-14T04:28:17.217Z,0.00
2023-02-14T04:29:17.231Z,0.00
2023-02-14T04:30:17.242Z,0.00
2023-02-14T04:31:17.341Z,0.00
2023-02-14T04:32:17.226Z,0.00
2023-02-14T04:33:17.186Z,0.00
2023-02-14T04:34:17.136Z,0.00
2023-02-14T04:35:17.150Z,0.00
2023-02-14T04:36:17.145Z,0.00
2023-02-14T04:37:17.121Z,0.00
2023-02-14T04:38:17.097Z,0.00
2023-02-14T04:39:17.104Z,0.00
2023-02-14T04:40:17.085Z,0.00
2023-02-14T04:41:17.097Z,0.00
2023-02-14T04:42:17.103Z,0.00
2023-02-14T04:43:17.030Z,0.00
2023-02-14T04:44:17.054Z,0.00
2023-02-14T04:45:17.035Z,0.00
2023-02-14T04:46:17.032Z,0.00
2023-02-14T04:47:17.010Z,0.00
2023-02-14T04:48:16.976Z,0.00
2023-02-14T04:49:16.964Z,0.00
2023-02-14T04:50:16.938Z,0.00
2023-02-14T04:51:16.957Z,0.00
2023-02-14T04:52:16.970Z,0.00
2023-02-14T04:53:17.006Z,0.00
2023-02-14T04:54:16.887Z,0.00
2023-02-14T04:55:16.888Z,0.00
2023-02-14T04:56:16.865Z,0.00
2023-02-14T04:57:16.855Z,0.00
2023-02-14T04:58:16.836Z,0.00
2023-02-14T04:59:16.869Z,0.00
2023-02-14T05:00:16.823Z,0.00
2023-02-14T05:01:16.874Z,0.00
2023-02-14T05:02:16.835Z,0.00
2023-02-14T05:03:16.845Z,0.00
2023-02-14T05:04:16.812Z,0.00
2023-02-14T05:05:16.783Z,0.00
2023-02-14T05:06:16.742Z,0.00
2023-02-14T05:07:16.754Z,0.00
2023-02-14T05:08:16.726Z,0.00
2023-02-14T05:09:16.700Z,0.00
2023-02-14T05:10:16.692Z,0.00
2023-02-14T05:11:16.724Z,0.00
2023-02-14T05:12:16.688Z,0.00
2023-02-14T05:13:16.670Z,0.00
2023-02-14T05:14:16.639Z,0.00
2023-02-14T05:15:16.629Z,0.00
2023-02-14T05:16:16.707Z,0.00
2023-02-14T05:17:16.646Z,0.00
2023-02-14T05:18:16.589Z,0.00
2023-02-14T05:19:16.714Z,0.00
2023-02-14T05:20:16.574Z,0.00
2023-02-14T05:21:16.547Z,0.00
2023-02-14T05:22:18.484Z,0.00
2023-02-14T05:23:16.556Z,0.00
2023-02-14T05:24:16.563Z,0.00
2023-02-14T05:25:16.518Z,0.00
2023-02-14T05:26:16.504Z,0.00
2023-02-14T05:27:16.509Z,0.00
2023-02-14T05:28:16.517Z,0.00
2023-02-14T05:29:16.495Z,0.00
2023-02-14T05:30:16.475Z,0.00
2023-02-14T05:31:16.554Z,0.00
2023-02-14T05:32:16.537Z,0.00
2023-02-14T05:33:16.398Z,0.00
2023-02-14T05:34:16.407Z,0.00
2023-02-14T05:35:16.404Z,0.00
2023-02-14T05:36:16.369Z,0.00
2023-02-14T05:37:16.368Z,0.00
2023-02-14T05:38:16.345Z,0.00
2023-02-14T05:39:16.354Z,0.00
2023-02-14T05:40:16.322Z,0.00
2023-02-14T05:41:16.346Z,0.00
2023-02-14T05:42:16.321Z,0.00
2023-02-14T05:43:16.292Z,0.00
2023-02-14T05:44:16.277Z,0.00
2023-02-14T05:45:16.264Z,0.00
2023-02-14T05:46:16.379Z,0.00
2023-02-14T05:47:16.518Z,0.00
2023-02-14T05:48:16.218Z,0.00
2023-02-14T05:49:16.201Z,0.00
2023-02-14T05:50:16.207Z,0.00
2023-02-14T05:51:16.201Z,0.00
2023-02-14T05:52:16.167Z,0.00
2023-02-14T05:53:16.182Z,0.00
2023-02-14T05:54:16.161Z,0.00
2023-02-14T05:55:16.135Z,0.00
2023-02-14T05:56:16.119Z,0.00
2023-02-14T05:57:16.133Z,0.00
2023-02-14T05:58:16.097Z,0.00
2023-02-14T05:59:16.135Z,0.00
2023-02-14T06:00:16.079Z,0.00
2023-02-14T06:01:16.095Z,0.00
2023-02-14T06:02:16.140Z,0.00
2023-02-14T06:03:16.047Z,0.00
2023-02-14T06:04:16.039Z,0.00
2023-02-14T06:05:16.050Z,0.00
2023-02-14T06:06:16.001Z,0.00
2023-02-14T06:07:15.999Z,0.00
2023-02-14T06:08:15.986Z,0.00
2023-02-14T06:09:15.978Z,0.00
2023-02-14T06:10:15.979Z,0.00
2023-02-14T06:11:15.980Z,0.00
2023-02-14T06:12:15.944Z,0.00
2023-02-14T06:13:15.945Z,0.00
2023-02-14T06:14:15.913Z,0.00
2023-02-14T06:15:15.929Z,0.00
2023-02-14T06:16:15.901Z,0.00
2023-02-14T06:17:15.925Z,0.00
2023-02-14T06:18:15.883Z,0.00
2023-02-14T06:19:15.860Z,0.00
2023-02-14T06:20:15.848Z,0.00
2023-02-14T06:45:36.328Z,0.00
2023-02-14T06:46:59.280Z,0.00
2023-02-14T06:48:00.230Z,0.00
2023-02-14T06:49:35.982Z,28.12
2023-02-14T06:50:37.016Z,28.12
2023-02-14T06:51:36.969Z,33.75
2023-02-14T06:52:36.950Z,33.75
2023-02-14T06:53:37.672Z,33.75
2023-02-14T06:54:36.918Z,33.75
2023-02-14T06:55:36.910Z,33.75
2023-02-14T06:56:36.933Z,39.38
2023-02-14T06:57:36.903Z,39.38
2023-02-14T06:58:36.867Z,45.00
2023-02-14T06:59:36.848Z,45.00
2023-02-14T07:00:36.844Z,50.62
2023-02-14T07:01:36.950Z,50.62
2023-02-14T07:02:36.896Z,50.62
2023-02-14T07:03:36.817Z,56.25
2023-02-14T07:04:36.793Z,56.25
2023-02-14T07:05:36.812Z,61.88
2023-02-14T07:06:36.768Z,61.88
2023-02-14T07:07:36.779Z,67.50
2023-02-14T07:08:36.767Z,67.50
2023-02-14T07:09:36.746Z,67.50
2023-02-14T07:10:36.725Z,67.50
2023-02-14T07:11:36.751Z,73.12
2023-02-14T07:12:36.691Z,73.12
2023-02-14T07:13:36.686Z,73.12
2023-02-14T07:14:36.702Z,78.75
2023-02-14T07:15:36.720Z,78.75
2023-02-14T07:16:36.645Z,78.75
2023-02-14T07:17:36.624Z,84.38
2023-02-14T07:18:36.630Z,84.38
2023-02-14T07:19:36.614Z,90.00
2023-02-14T07:20:36.661Z,84.38
2023-02-14T07:21:36.589Z,90.00
2023-02-14T07:22:36.570Z,95.62
2023-02-14T07:23:36.557Z,95.62
2023-02-14T07:24:36.543Z,95.62
2023-02-14T07:25:36.569Z,95.62
2023-02-14T07:26:36.542Z,101.25
2023-02-14T07:27:36.506Z,95.62
2023-02-14T07:28:36.514Z,95.62
2023-02-14T07:29:36.489Z,95.62
2023-02-14T07:30:36.485Z,101.25
2023-02-14T07:31:36.641Z,101.25
2023-02-14T07:32:36.473Z,101.25
2023-02-14T07:33:36.438Z,101.25
2023-02-14T07:34:36.446Z,101.25
2023-02-14T07:35:36.480Z,106.88
2023-02-14T07:36:36.396Z,112.50
2023-02-14T07:37:36.416Z,118.12
2023-02-14T07:38:36.423Z,118.12
2023-02-14T07:39:36.352Z,118.12
2023-02-14T07:40:36.346Z,123.75
2023-02-14T07:41:36.327Z,123.75
2023-02-14T07:42:36.323Z,123.75
2023-02-14T07:43:36.322Z,129.38
2023-02-14T07:44:36.320Z,129.38
2023-02-14T07:45:36.278Z,135.00
2023-02-14T07:46:36.349Z,135.00
2023-02-14T07:47:36.261Z,135.00
2023-02-14T07:48:36.252Z,140.62
2023-02-14T07:49:36.232Z,146.25
2023-02-14T07:50:36.262Z,151.88
2023-02-14T07:51:36.220Z,151.88
2023-02-14T07:52:36.200Z,157.50
2023-02-14T07:53:36.188Z,163.12
2023-02-14T07:54:36.187Z,168.75
2023-02-14T07:55:36.166Z,174.38
2023-02-14T07:56:36.169Z,185.62
2023-02-14T07:57:36.133Z,191.25
2023-02-14T07:58:36.126Z,196.88
2023-02-14T07:59:36.114Z,196.88
2023-02-14T08:00:36.092Z,196.88
2023-02-14T08:01:36.178Z,196.88
2023-02-14T08:02:36.097Z,196.88
2023-02-14T08:03:36.065Z,202.50
2023-02-14T08:04:36.109Z,208.12
2023-02-14T08:05:36.027Z,213.75
2023-02-14T08:06:36.021Z,225.00
2023-02-14T08:07:36.024Z,230.62
2023-02-14T08:08:36.032Z,236.25
2023-02-14T08:09:35.975Z,230.62
2023-02-14T08:10:35.982Z,225.00
2023-02-14T08:11:35.969Z,236.25
2023-02-14T08:12:35.937Z,241.88
2023-02-14T08:13:35.923Z,241.88
2023-02-14T08:14:35.941Z,247.50
2023-02-14T08:15:35.919Z,247.50
2023-02-14T08:16:35.929Z,247.50
2023-02-14T08:17:36.701Z,247.50
2023-02-14T08:18:35.886Z,247.50
2023-02-14T08:19:35.860Z,241.88
2023-02-14T08:20:35.863Z,247.50
2023-02-14T08:21:35.814Z,258.75
2023-02-14T08:22:35.806Z,264.38
2023-02-14T08:23:35.816Z,264.38
2023-02-14T08:24:35.788Z,264.38
2023-02-14T08:25:35.777Z,264.38
2023-02-14T08:26:35.793Z,258.75
2023-02-14T08:27:35.751Z,258.75
2023-02-14T08:28:35.754Z,253.12
2023-02-14T08:29:35.756Z,241.88
2023-02-14T08:30:35.775Z,247.50
2023-02-14T08:31:36.788Z,258.75
2023-02-14T08:32:35.925Z,264.38
2023-02-14T08:33:35.672Z,270.00
2023-02-14T08:34:35.687Z,264.38
2023-02-14T08:35:35.639Z,275.62
2023-02-14T08:36:35.645Z,298.12
2023-02-14T08:37:35.618Z,298.12
2023-02-14T08:38:35.660Z,292.50
2023-02-14T08:39:35.639Z,303.75
2023-02-14T08:40:35.575Z,315.00
2023-02-14T08:41:35.618Z,326.25
2023-02-14T08:42:35.563Z,320.62
2023-02-14T08:43:35.582Z,326.25
2023-02-14T08:44:35.564Z,337.50
2023-02-14T08:45:35.533Z,348.75
2023-02-14T08:46:35.542Z,365.62
2023-02-14T08:47:35.502Z,360.00
2023-02-14T08:48:38.824Z,348.75
2023-02-14T08:49:35.458Z,348.75
2023-02-14T08:50:35.517Z,348.75
2023-02-14T08:51:35.446Z,348.75
2023-02-14T08:52:35.443Z,343.12
2023-02-14T08:53:35.459Z,331.88
2023-02-14T08:54:35.417Z,337.50
2023-02-14T08:55:35.420Z,343.12
2023-02-14T08:56:35.472Z,337.50
2023-02-14T08:57:35.373Z,337.50
2023-02-14T08:58:35.367Z,343.12
2023-02-14T08:59:35.407Z,354.38
2023-02-14T09:00:35.424Z,354.38
2023-02-14T09:01:35.371Z,365.62
2023-02-14T09:02:35.362Z,365.62
2023-02-14T09:03:38.126Z,365.62
2023-02-14T09:04:35.483Z,360.00
2023-02-14T09:05:35.278Z,365.62
2023-02-14T09:06:35.252Z,376.88
2023-02-14T09:07:35.269Z,382.50
2023-02-14T09:08:35.283Z,399.38
2023-02-14T09:09:35.237Z,405.00
2023-02-14T09:10:35.327Z,410.62
2023-02-14T09:11:35.258Z,405.00
2023-02-14T09:12:35.219Z,405.00
2023-02-14T09:13:35.158Z,410.62
2023-02-14T09:14:35.194Z,421.88
2023-02-14T09:15:35.146Z,433.12
2023-02-14T09:16:35.185Z,450.00
2023-02-14T09:17:35.203Z,455.62
2023-02-14T09:18:35.154Z,472.50
2023-02-14T09:19:35.090Z,500.62
2023-02-14T09:20:35.114Z,511.88
2023-02-14T09:21:35.103Z,495.00
2023-02-14T09:22:35.096Z,495.00
2023-02-14T09:23:35.038Z,489.38
2023-02-14T09:24:35.029Z,466.88
2023-02-14T09:25:35.703Z,483.75
2023-02-14T09:26:35.075Z,517.50
2023-02-14T09:27:34.980Z,545.62
2023-02-14T09:28:34.990Z,523.12
2023-02-14T09:29:34.990Z,483.75
2023-02-14T09:30:35.763Z,461.25
2023-02-14T09:31:35.004Z,455.62
2023-02-14T09:32:35.011Z,444.38
2023-02-14T09:33:34.922Z,450.00
2023-02-14T09:34:34.912Z,466.88
2023-02-14T09:35:34.902Z,483.75
2023-02-14T09:36:34.888Z,523.12
2023-02-14T09:37:34.866Z,585.00
2023-02-14T09:38:34.904Z,607.50
2023-02-14T09:39:34.859Z,556.88
2023-02-14T09:40:34.865Z,506.25
2023-02-14T09:41:34.835Z,489.38
2023-02-14T09:42:34.802Z,495.00
2023-02-14T09:43:34.859Z,495.00
2023-02-14T09:44:34.812Z,478.12
2023-02-14T09:45:34.823Z,461.25
2023-02-14T09:46:34.771Z,461.25
2023-02-14T09:47:34.741Z,489.38
2023-02-14T09:48:34.713Z,540.00
2023-02-14T09:49:34.794Z,573.75
2023-02-14T09:50:34.771Z,556.88
2023-02-14T09:51:34.700Z,551.25
2023-02-14T09:52:34.694Z,562.50
2023-02-14T09:53:34.670Z,579.38
2023-02-14T09:54:34.669Z,585.00
2023-02-14T09:55:34.632Z,579.38
2023-02-14T09:56:42.862Z,579.38
2023-02-14T09:57:34.616Z,590.62
2023-02-14T09:58:34.604Z,601.88
2023-02-14T09:59:34.588Z,590.62
2023-02-14T10:00:34.577Z,579.38
2023-02-14T10:01:34.636Z,573.75
2023-02-14T10:02:34.593Z,590.62
2023-02-14T10:03:34.550Z,590.62
2023-02-14T10:04:34.574Z,590.62
2023-02-14T10:05:34.506Z,590.62
2023-02-14T10:06:34.506Z,601.88
2023-02-14T10:07:34.508Z,607.50
2023-02-14T10:08:34.543Z,607.50
2023-02-14T10:09:34.465Z,607.50
2023-02-14T10:10:34.496Z,635.62
2023-02-14T10:11:34.439Z,641.25
2023-02-14T10:12:34.428Z,613.12
2023-02-14T10:13:34.424Z,607.50
2023-02-14T10:14:34.427Z,613.12
2023-02-14T10:15:34.387Z,624.38
2023-02-14T10:16:34.379Z,630.00
2023-02-14T10:17:34.360Z,613.12
2023-02-14T10:18:34.356Z,613.12
2023-02-14T10:19:34.329Z,630.00
2023-02-14T10:20:34.355Z,652.50
2023-02-14T10:21:34.322Z,663.75
2023-02-14T10:22:34.318Z,669.38
2023-02-14T10:23:34.287Z,708.75
2023-02-14T10:24:34.276Z,753.75
2023-02-14T10:25:34.295Z,765.00
2023-02-14T10:26:34.272Z,759.38
2023-02-14T10:27:34.240Z,736.88
2023-02-14T10:28:34.210Z,720.00
2023-02-14T10:29:34.196Z,669.38
2023-02-14T10:30:34.954Z,663.75
2023-02-14T10:31:34.252Z,703.12
2023-02-14T10:32:34.194Z,765.00
2023-02-14T10:33:34.153Z,793.12
2023-02-14T10:34:34.155Z,787.50
2023-02-14T10:35:34.127Z,736.88
2023-02-14T10:36:34.121Z,697.50
2023-02-14T10:37:34.108Z,703.12
2023-02-14T10:38:34.126Z,742.50
2023-02-14T10:39:34.089Z,770.62
2023-02-14T10:40:34.059Z,776.25
2023-02-14T10:41:34.055Z,798.75
2023-02-14T10:42:34.046Z,804.38
2023-02-14T10:43:34.028Z,770.62
2023-02-14T10:44:34.050Z,748.12
2023-02-14T10:45:33.989Z,781.88
2023-02-14T10:46:34.000Z,821.25
2023-02-14T10:47:33.982Z,855.00
2023-02-14T10:48:33.959Z,832.50
2023-02-14T10:49:33.945Z,770.62
2023-02-14T10:50:33.983Z,697.50
2023-02-14T10:51:34.302Z,703.12
2023-02-14T10:52:33.919Z,697.50
2023-02-14T10:53:33.900Z,663.75
2023-02-14T10:54:33.885Z,686.25
2023-02-14T10:55:33.874Z,725.62
2023-02-14T10:56:33.908Z,736.88
2023-02-14T10:57:33.844Z,731.25
2023-02-14T10:58:33.844Z,720.00
2023-02-14T10:59:33.832Z,703.12
2023-02-14T11:00:33.828Z,658.12
2023-02-14T11:01:33.823Z,624.38
2023-02-14T11:02:33.806Z,613.12
2023-02-14T11:03:33.921Z,613.12
2023-02-14T11:04:33.814Z,607.50
2023-02-14T11:05:33.752Z,618.75
2023-02-14T11:06:33.728Z,607.50
2023-02-14T11:07:33.724Z,585.00
2023-02-14T11:08:33.811Z,618.75
2023-02-14T11:09:33.703Z,646.88
2023-02-14T11:10:33.677Z,652.50
2023-02-14T11:11:33.699Z,624.38
2023-02-14T11:12:33.660Z,596.25
2023-02-14T11:13:33.672Z,596.25
2023-02-14T11:14:33.694Z,613.12
2023-02-14T11:15:33.636Z,658.12
2023-02-14T11:16:33.738Z,675.00
2023-02-14T11:17:33.599Z,641.25
2023-02-14T11:18:33.597Z,607.50
2023-02-14T11:19:35.464Z,579.38
2023-02-14T11:20:33.637Z,568.12
2023-02-14T11:21:33.568Z,573.75
2023-02-14T11:22:33.526Z,579.38
2023-02-14T11:23:33.522Z,585.00
2023-02-14T11:24:33.512Z,618.75
2023-02-14T11:25:33.514Z,624.38
2023-02-14T11:26:33.510Z,624.38
2023-02-14T11:27:33.464Z,618.75
2023-02-14T11:28:33.464Z,601.88
2023-02-14T11:29:33.438Z,607.50
2023-02-14T11:30:33.521Z,590.62
2023-02-14T11:31:33.599Z,601.88
2023-02-14T11:32:33.445Z,624.38
2023-02-14T11:33:33.449Z,613.12
2023-02-14T11:34:33.378Z,630.00
2023-02-14T11:35:33.361Z,669.38
2023-02-14T11:36:33.362Z,663.75
2023-02-14T11:37:33.342Z,630.00
2023-02-14T11:38:33.350Z,596.25
2023-02-14T11:39:33.326Z,579.38
2023-02-14T11:40:33.296Z,579.38
2023-02-14T11:41:33.306Z,613.12
2023-02-14T11:42:33.288Z,618.75
2023-02-14T11:43:33.259Z,652.50
2023-02-14T11:44:33.286Z,691.88
2023-02-14T11:45:33.240Z,663.75
2023-02-14T11:46:36.150Z,675.00
2023-02-14T11:47:33.346Z,635.62
2023-02-14T11:48:38.277Z,596.25
2023-02-14T11:49:33.187Z,585.00
2023-02-14T11:50:33.201Z,573.75
2023-02-14T11:51:33.184Z,556.88
2023-02-14T11:52:33.138Z,573.75
2023-02-14T11:53:33.142Z,596.25
2023-02-14T11:54:33.129Z,630.00
2023-02-14T11:55:33.122Z,652.50
2023-02-14T11:56:33.119Z,675.00
2023-02-14T11:57:33.475Z,691.88
2023-02-14T11:58:33.066Z,686.25
2023-02-14T11:59:33.054Z,680.62
2023-02-14T12:00:33.051Z,680.62
2023-02-14T12:01:33.049Z,714.38
2023-02-14T12:02:33.086Z,742.50
2023-02-14T12:03:33.902Z,826.88
2023-02-14T12:04:38.147Z,905.62
2023-02-14T12:05:32.986Z,871.88
2023-02-14T12:06:32.973Z,849.38
2023-02-14T12:07:32.960Z,838.12
2023-02-14T12:08:32.962Z,815.62
2023-02-14T12:09:32.922Z,793.12
2023-02-14T12:10:32.924Z,776.25
2023-02-14T12:11:32.917Z,798.75
2023-02-14T12:12:32.895Z,826.88
2023-02-14T12:13:32.885Z,860.62
2023-02-14T12:14:32.924Z,849.38
2023-02-14T12:15:33.035Z,815.62
2023-02-14T12:16:32.852Z,787.50
2023-02-14T12:17:32.839Z,804.38
2023-02-14T12:18:32.822Z,832.50
2023-02-14T12:19:32.808Z,832.50
2023-02-14T12:20:32.843Z,776.25
2023-02-14T12:21:32.774Z,781.88
2023-02-14T12:22:32.766Z,798.75
2023-02-14T12:23:32.750Z,776.25
2023-02-14T12:24:32.745Z,720.00
2023-02-14T12:25:32.734Z,708.75
2023-02-14T12:26:32.750Z,742.50
2023-02-14T12:27:34.795Z,736.88
2023-02-14T12:28:32.679Z,697.50
2023-02-14T12:29:32.680Z,697.50
2023-02-14T12:30:32.677Z,776.25
2023-02-14T12:31:32.769Z,888.75
2023-02-14T12:32:32.680Z,849.38
2023-02-14T12:33:32.620Z,731.25
2023-02-14T12:34:32.604Z,708.75
2023-02-14T12:35:32.592Z,697.50
2023-02-14T12:36:32.589Z,680.62
2023-02-14T12:37:32.604Z,725.62
2023-02-14T12:38:32.575Z,916.88
2023-02-14T12:39:32.534Z,888.75
2023-02-14T12:40:32.521Z,821.25
2023-02-14T12:41:32.558Z,871.88
2023-02-14T12:42:32.504Z,815.62
2023-02-14T12:43:32.491Z,720.00
2023-02-14T12:44:32.504Z,703.12
2023-02-14T12:45:32.476Z,669.38
2023-02-14T12:46:32.461Z,697.50
2023-02-14T12:47:32.465Z,703.12
2023-02-14T12:48:33.309Z,776.25
2023-02-14T12:49:32.416Z,781.88
2023-02-14T12:50:32.443Z,725.62
2023-02-14T12:51:32.396Z,697.50
2023-02-14T12:52:32.386Z,720.00
2023-02-14T12:53:32.379Z,748.12
2023-02-14T12:54:32.350Z,832.50
2023-02-14T12:55:32.332Z,849.38
2023-02-14T12:56:32.357Z,832.50
2023-02-14T12:57:32.315Z,798.75
2023-02-14T12:58:32.300Z,776.25
2023-02-14T12:59:32.278Z,753.75
2023-02-14T13:00:32.287Z,753.75
2023-02-14T13:01:38.533Z,753.75
2023-02-14T13:02:32.431Z,742.50
2023-02-14T13:03:32.226Z,720.00
2023-02-14T13:04:32.238Z,686.25
2023-02-14T13:05:32.199Z,652.50
2023-02-14T13:06:32.203Z,646.88
2023-02-14T13:07:32.205Z,652.50
2023-02-14T13:08:32.202Z,675.00
2023-02-14T13:09:32.148Z,714.38
2023-02-14T13:10:32.686Z,781.88
2023-02-14T13:11:32.528Z,849.38
2023-02-14T13:12:32.144Z,871.88
2023-02-14T13:13:32.104Z,838.12
2023-02-14T13:14:32.194Z,798.75
2023-02-14T13:15:32.076Z,753.75
2023-02-14T13:16:32.075Z,675.00
2023-02-14T13:17:32.099Z,669.38
2023-02-14T13:18:32.164Z,691.88
2023-02-14T13:19:32.309Z,691.88
2023-02-14T13:20:32.064Z,680.62
2023-02-14T13:21:32.037Z,658.12
2023-02-14T13:22:32.115Z,663.75
2023-02-14T13:23:31.978Z,596.25
2023-02-14T13:24:31.990Z,523.12
2023-02-14T13:25:31.944Z,568.12
2023-02-14T13:26:32.526Z,579.38
2023-02-14T13:27:32.264Z,562.50
2023-02-14T13:28:31.910Z,568.12
2023-02-14T13:29:31.900Z,585.00
2023-02-14T13:30:32.292Z,596.25
2023-02-14T13:31:32.070Z,556.88
2023-02-14T13:32:31.891Z,511.88
2023-02-14T13:33:34.731Z,472.50